createdAt,value
2023-05-05T00:00:20.300Z,51.8
2023-05-05T00:05:38.705Z,52.4
2023-05-05T00:10:56.897Z,51.9
2023-05-05T00:16:15.251Z,51.7
2023-05-05T00:21:33.431Z,51.9
2023-05-05T00:26:51.666Z,51.9
2023-05-05T00:32:10.217Z,52.4
2023-05-05T00:37:28.570Z,52.7
2023-05-05T00:42:46.601Z,52.4
2023-05-05T00:48:05.030Z,52.2
2023-05-05T00:53:23.466Z,52.3
2023-05-05T00:58:41.846Z,52.3
2023-05-05T01:04:00.430Z,52.8
2023-05-05T01:09:18.405Z,53
2023-05-05T01:14:36.533Z,52.1
2023-05-05T01:19:54.950Z,52.7
2023-05-05T01:25:13.267Z,52.8
2023-05-05T01:30:31.336Z,52.6
2023-05-05T01:35:49.302Z,52.3
2023-05-05T01:41:07.290Z,52.2
2023-05-05T01:46:25.841Z,52.4
2023-05-05T01:51:44.386Z,52.6
2023-05-05T01:57:02.796Z,53.2
2023-05-05T02:02:21.097Z,53.1
2023-05-05T02:07:39.319Z,53.2
2023-05-05T02:12:57.669Z,53.3
2023-05-05T02:18:15.878Z,53.2
2023-05-05T02:23:34.444Z,53.4
2023-05-05T02:28:52.843Z,53.5
2023-05-05T02:34:11.412Z,52.6
2023-05-05T02:39:29.582Z,53.8
2023-05-05T02:44:47.915Z,53.8
2023-05-05T02:50:06.952Z,54.1
2023-05-05T02:55:25.591Z,54
2023-05-05T03:00:43.558Z,53.3
2023-05-05T03:06:01.958Z,53.8
2023-05-05T03:11:20.305Z,53.6
2023-05-05T03:16:38.663Z,52.9
2023-05-05T03:21:57.403Z,53.6
2023-05-05T03:27:15.577Z,53.5
2023-05-05T03:32:33.957Z,53.1
2023-05-05T03:37:51.962Z,53.4
2023-05-05T03:43:10.323Z,53.5
2023-05-05T03:48:28.445Z,53
2023-05-05T03:53:46.783Z,52.6
2023-05-05T03:59:05.136Z,52.2
2023-05-05T04:04:23.550Z,52.9
2023-05-05T04:09:41.535Z,52
2023-05-05T04:15:00.168Z,52.8
2023-05-05T04:20:18.623Z,51.7
2023-05-05T04:25:36.917Z,51.8
2023-05-05T04:30:55.690Z,52.4
2023-05-05T04:36:13.971Z,48.6
2023-05-05T04:41:31.953Z,48.1
2023-05-05T04:46:50.411Z,48
2023-05-05T04:52:08.847Z,49.5
2023-05-05T04:57:26.989Z,49.3
2023-05-05T05:02:45.362Z,50.2
2023-05-05T05:08:03.788Z,49.6
2023-05-05T05:13:22.504Z,50.1
2023-05-05T05:18:40.975Z,50.3
2023-05-05T05:23:59.378Z,49.7
2023-05-05T05:29:17.333Z,49.6
2023-05-05T05:34:35.876Z,50.4
2023-05-05T05:39:54.219Z,49.8
2023-05-05T05:45:12.807Z,50.1
2023-05-05T05:50:34.503Z,50.6
2023-05-05T05:55:53.037Z,50.4
2023-05-05T06:01:11.564Z,49.8
2023-05-05T06:06:30.069Z,49.7
2023-05-05T06:11:48.531Z,50.5
2023-05-05T06:17:09.334Z,49.8
2023-05-05T06:22:27.748Z,49.6
2023-05-05T06:27:45.937Z,50.2
2023-05-05T06:33:04.224Z,50.5
2023-05-05T06:38:22.861Z,49.7
2023-05-05T06:43:41.012Z,50.4
2023-05-05T06:48:59.301Z,49.9
2023-05-05T06:54:17.942Z,50.5
2023-05-05T06:59:36.624Z,49.7
2023-05-05T07:04:55.446Z,50.3
2023-05-05T07:10:13.833Z,50.2
2023-05-05T07:15:32.340Z,49.7
2023-05-05T07:20:50.920Z,49.7
2023-05-05T07:26:09.472Z,50.5
2023-05-05T07:31:28.402Z,49.8
2023-05-05T07:36:46.749Z,49.8
2023-05-05T07:42:05.284Z,50.2
2023-05-05T07:47:23.485Z,49.8
2023-05-05T07:53:06.102Z,50.5
2023-05-05T07:58:28.536Z,51
2023-05-05T08:03:47.443Z,50.4
2023-05-05T08:09:06.285Z,49.6
2023-05-05T08:14:24.927Z,49.6
2023-05-05T08:19:30.506Z,49.5
2023-05-05T08:24:49.015Z,50.6
2023-05-05T08:30:07.339Z,49.5
2023-05-05T08:35:25.950Z,49.4
2023-05-05T08:40:44.480Z,50.2
2023-05-05T08:46:03.150Z,50.2
2023-05-05T08:51:21.733Z,49.4
2023-05-05T08:56:40.307Z,50.1
2023-05-05T09:01:58.566Z,49.4
2023-05-05T09:07:16.917Z,49.8
2023-05-05T09:12:35.478Z,50
2023-05-05T09:17:54.359Z,50.1
2023-05-05T09:23:12.927Z,49.2
2023-05-05T09:28:31.011Z,50.2
2023-05-05T09:33:49.669Z,50.1
2023-05-05T09:39:08.046Z,49.7
2023-05-05T09:44:26.606Z,49.5
2023-05-05T09:49:45.038Z,49.2
2023-05-05T09:55:03.885Z,49.1
2023-05-05T10:00:22.693Z,49.9
2023-05-05T10:05:41.425Z,50
2023-05-05T10:11:02.572Z,49.2
2023-05-05T10:16:21.120Z,49.1
2023-05-05T10:21:42.724Z,49.7
2023-05-05T10:27:01.333Z,49.9
2023-05-05T10:33:13.534Z,49.8
2023-05-05T10:38:35.839Z,49.9
2023-05-05T10:43:54.651Z,50.2
2023-05-05T10:49:14.368Z,49.1
2023-05-05T10:54:33.709Z,49.1
2023-05-05T10:59:53.222Z,49.1
2023-05-05T11:05:11.879Z,49.8
2023-05-05T11:10:30.153Z,49.2
2023-05-05T11:15:48.538Z,49.1
2023-05-05T11:21:09.963Z,49.4
2023-05-05T11:26:28.551Z,49.4
2023-05-05T11:31:46.868Z,49.7
2023-05-05T11:37:05.154Z,50
2023-05-05T11:42:23.496Z,49.5
2023-05-05T11:47:41.789Z,49.2
2023-05-05T11:53:00.397Z,49.2
2023-05-05T11:58:18.866Z,49.3
2023-05-05T12:03:38.110Z,49.4
2023-05-05T12:08:56.965Z,49.5
2023-05-05T12:14:15.385Z,49.3
2023-05-05T12:19:34.116Z,50.1
2023-05-05T12:24:55.539Z,49.6
2023-05-05T12:29:58.323Z,49.9
2023-05-05T12:35:16.895Z,49.5
2023-05-05T12:40:35.433Z,49.1
2023-05-05T12:45:54.751Z,49.8
2023-05-05T12:51:12.944Z,50
2023-05-05T12:56:15.829Z,50
2023-05-05T13:01:34.547Z,49.9
2023-05-05T13:06:55.146Z,49.3
2023-05-05T13:11:58.138Z,50
2023-05-05T13:17:16.316Z,49.6
2023-05-05T13:22:34.826Z,49.1
2023-05-05T13:27:53.430Z,49.3
2023-05-05T13:33:11.910Z,50.3
2023-05-05T13:38:30.417Z,49.9
2023-05-05T13:43:48.912Z,50.1
2023-05-05T13:49:07.460Z,47.6
2023-05-05T13:54:25.957Z,47.7
2023-05-05T13:59:28.781Z,46.5
2023-05-05T14:04:47.224Z,46.2
2023-05-05T14:10:05.618Z,45.9
2023-05-05T14:15:24.204Z,46.6
2023-05-05T14:20:42.665Z,47.2
2023-05-05T14:26:01.914Z,48.2
2023-05-05T14:31:20.644Z,47.6
2023-05-05T14:36:38.950Z,48.7
2023-05-05T14:41:57.911Z,47.9
2023-05-05T14:47:00.916Z,48.8
2023-05-05T14:52:20.560Z,49
2023-05-05T14:57:39.199Z,49.2
2023-05-05T15:02:58.141Z,48.6
2023-05-05T15:08:17.140Z,49.3
2023-05-05T15:13:35.721Z,48.7
2023-05-05T15:18:54.506Z,48.8
2023-05-05T15:24:12.965Z,49.3
2023-05-05T15:29:31.452Z,49.1
2023-05-05T15:34:51.295Z,49.9
2023-05-05T15:40:09.791Z,49.7
2023-05-05T15:45:28.314Z,49.6
2023-05-05T15:50:46.662Z,49.9
2023-05-05T15:56:04.894Z,49.7
2023-05-05T16:01:24.507Z,49.7
2023-05-05T16:06:42.808Z,49.2
2023-05-05T16:12:01.259Z,50
2023-05-05T16:17:23.239Z,49.1
2023-05-05T16:22:42.087Z,49
2023-05-05T16:28:00.713Z,49.4
2023-05-05T16:33:19.150Z,49.9
2023-05-05T16:38:37.320Z,49.7
2023-05-05T16:43:55.692Z,49
2023-05-05T16:49:14.181Z,48.9
2023-05-05T16:54:32.562Z,49.7
2023-05-05T16:59:51.171Z,49.7
2023-05-05T17:05:10.637Z,49.9
2023-05-05T17:10:29.644Z,49
2023-05-05T17:15:48.575Z,49.7
2023-05-05T17:21:06.982Z,49.7
2023-05-05T17:26:25.474Z,49.1
2023-05-05T17:31:44.378Z,48.9
2023-05-05T17:37:02.793Z,49.7
2023-05-05T17:42:21.685Z,49.8
2023-05-05T17:47:40.210Z,49.2
2023-05-05T17:52:58.935Z,48.2
2023-05-05T17:58:17.673Z,48.6
2023-05-05T18:03:40.036Z,48.9
2023-05-05T18:08:59.365Z,48.2
2023-05-05T18:14:20.811Z,49
2023-05-05T18:19:39.357Z,48.4
2023-05-05T18:24:57.801Z,50
2023-05-05T18:30:16.295Z,50.3
2023-05-05T18:35:34.940Z,50.2
2023-05-05T18:40:53.516Z,50.2
2023-05-05T18:46:12.306Z,49.9
2023-05-05T18:51:31.078Z,50.6
2023-05-05T18:56:49.713Z,50.2
2023-05-05T19:01:52.278Z,50.7
2023-05-05T19:07:18.495Z,50.8
2023-05-05T19:12:42.298Z,50.7
2023-05-05T19:18:00.470Z,50
2023-05-05T19:23:18.889Z,50.1
2023-05-05T19:28:37.115Z,50.4
2023-05-05T19:33:55.614Z,49.9
2023-05-05T19:39:16.638Z,50.9
2023-05-05T19:44:35.069Z,50.4
2023-05-05T19:49:53.413Z,50
2023-05-05T19:55:11.526Z,50.2
2023-05-05T20:00:29.754Z,47.2
2023-05-05T20:05:47.914Z,49
2023-05-05T20:11:06.455Z,48.8
2023-05-05T20:16:25.347Z,49.2
2023-05-05T20:21:43.865Z,47.7
2023-05-05T20:27:02.599Z,48.3
2023-05-05T20:32:21.375Z,48.9
2023-05-05T20:37:40.170Z,49.5
2023-05-05T20:42:58.379Z,49.4
2023-05-05T20:48:16.855Z,49.4
2023-05-05T20:53:35.384Z,49.7
2023-05-05T20:58:53.971Z,50.4
2023-05-05T21:04:12.819Z,51.1
2023-05-05T21:09:31.084Z,50.8
2023-05-05T21:14:50.970Z,50.2
2023-05-05T21:20:10.651Z,50.5
2023-05-05T21:25:29.327Z,51
2023-05-05T21:31:22.616Z,51.1
2023-05-05T21:36:40.895Z,51.1
2023-05-05T21:41:59.632Z,50.4
2023-05-05T21:47:18.486Z,51
2023-05-05T21:52:36.760Z,51.2
2023-05-05T21:57:55.007Z,50.3
2023-05-05T22:03:13.273Z,50.4
2023-05-05T22:08:31.395Z,50.3
2023-05-05T22:13:49.840Z,51
2023-05-05T22:19:08.190Z,51.2
2023-05-05T22:24:26.788Z,51.1
2023-05-05T22:29:45.034Z,50.9
2023-05-05T22:35:03.502Z,50.6
2023-05-05T22:40:21.683Z,51.1
2023-05-05T22:45:40.331Z,50.5
2023-05-05T22:50:58.828Z,50.9
2023-05-05T22:56:17.353Z,51.3
2023-05-05T23:01:35.836Z,50.6
2023-05-05T23:06:54.543Z,50.9
2023-05-05T23:11:58.331Z,51.1
2023-05-05T23:17:16.371Z,51
2023-05-05T23:22:34.991Z,50.6
2023-05-05T23:27:53.716Z,50.5
2023-05-05T23:33:12.203Z,51
2023-05-05T23:38:30.651Z,50.8
2023-05-05T23:43:49.208Z,51.6
2023-05-05T23:49:07.753Z,51.3
2023-05-05T23:54:26.255Z,50.6
2023-05-05T23:59:45.442Z,51.3
